createdAt,value
2023-01-24T00:02:16.538Z,1.50
2023-01-24T00:04:43.376Z,1.40
2023-01-24T00:07:10.151Z,1.50
2023-01-24T00:09:36.928Z,1.50
2023-01-24T00:12:03.782Z,1.40
2023-01-24T00:14:30.611Z,1.40
2023-01-24T00:16:57.400Z,1.40
2023-01-24T00:19:24.219Z,1.40
2023-01-24T00:21:50.927Z,1.40
2023-01-24T00:24:17.758Z,1.40
2023-01-24T00:26:44.552Z,1.40
2023-01-24T00:29:11.418Z,1.40
2023-01-24T00:31:38.314Z,1.40
2023-01-24T00:38:32.568Z,1.50
2023-01-24T00:40:59.559Z,1.40
2023-01-24T00:43:27.832Z,1.40
2023-01-24T00:45:54.842Z,1.40
2023-01-24T00:48:22.279Z,1.40
2023-01-24T00:50:49.079Z,1.30
2023-01-24T00:53:16.399Z,1.40
2023-01-24T00:55:44.071Z,1.40
2023-01-24T00:58:12.536Z,1.40
2023-01-24T01:00:39.943Z,-1.20
2023-01-24T01:03:08.204Z,1.40
2023-01-24T01:05:35.002Z,1.40
2023-01-24T01:08:01.929Z,1.40
2023-01-24T01:10:28.886Z,1.40
2023-01-24T01:12:56.035Z,1.40
2023-01-24T01:15:23.259Z,1.40
2023-01-24T01:17:50.220Z,1.40
2023-01-24T01:20:17.038Z,1.40
2023-01-24T01:22:43.908Z,2.10
2023-01-24T01:25:10.703Z,1.20
2023-01-24T01:27:37.531Z,1.40
2023-01-24T01:30:05.151Z,1.30
2023-01-24T01:32:31.941Z,1.40
2023-01-24T01:34:58.708Z,1.20
2023-01-24T01:37:25.561Z,1.40
2023-01-24T01:39:52.827Z,1.40
2023-01-24T01:42:19.586Z,1.40
2023-01-24T01:44:49.185Z,1.40
2023-01-24T01:47:16.007Z,2.50
2023-01-24T01:50:08.109Z,1.40
2023-01-24T01:52:37.843Z,1.40
2023-01-24T01:55:13.834Z,1.40
2023-01-24T01:57:41.565Z,1.40
2023-01-24T02:00:16.277Z,1.40
2023-01-24T02:03:28.950Z,2.80
2023-01-24T02:05:55.711Z,1.40
2023-01-24T02:08:23.418Z,1.40
2023-01-24T02:11:11.647Z,1.30
2023-01-24T02:13:44.516Z,1.30
2023-01-24T02:16:12.454Z,1.40
2023-01-24T02:18:40.258Z,1.40
2023-01-24T02:21:16.033Z,1.30
2023-01-24T02:23:56.297Z,1.30
2023-01-24T02:26:27.299Z,1.30
2023-01-24T02:28:58.166Z,1.30
2023-01-24T02:31:25.843Z,1.40
2023-01-24T02:33:52.822Z,1.40
2023-01-24T02:36:33.329Z,1.40
2023-01-24T02:39:09.673Z,1.40
2023-01-24T02:41:44.143Z,1.40
2023-01-24T02:44:13.447Z,1.40
2023-01-24T02:50:52.196Z,1.40
2023-01-24T02:53:31.282Z,1.30
2023-01-24T02:56:19.013Z,2.40
2023-01-24T02:58:46.002Z,1.40
2023-01-24T03:01:13.053Z,1.40
2023-01-24T03:03:39.923Z,2.70
2023-01-24T03:06:07.181Z,1.40
2023-01-24T03:08:36.886Z,1.30
2023-01-24T03:11:11.039Z,1.30
2023-01-24T03:13:56.679Z,1.30
2023-01-24T03:16:42.196Z,1.30
2023-01-24T03:19:27.697Z,1.30
2023-01-24T03:26:06.578Z,3.90
2023-01-24T03:28:51.973Z,1.30
2023-01-24T03:31:37.298Z,1.30
2023-01-24T03:34:23.040Z,2.10
2023-01-24T03:36:49.791Z,1.30
2023-01-24T03:39:35.099Z,2.00
2023-01-24T03:42:01.868Z,1.30
2023-01-24T03:44:29.316Z,1.30
2023-01-24T03:46:56.385Z,1.30
2023-01-24T03:49:41.851Z,1.00
2023-01-24T03:52:27.185Z,1.30
2023-01-24T03:54:54.156Z,1.30
2023-01-24T03:57:20.929Z,1.30
2023-01-24T03:59:48.024Z,1.30
2023-01-24T04:02:15.404Z,1.30
2023-01-24T04:05:01.636Z,1.30
2023-01-24T04:07:28.756Z,1.30
2023-01-24T04:10:00.081Z,1.00
2023-01-24T04:12:27.810Z,1.30
2023-01-24T04:14:54.820Z,1.30
2023-01-24T04:17:21.658Z,3.70
2023-01-24T04:19:52.347Z,1.30
2023-01-24T04:22:19.578Z,1.30
2023-01-24T04:24:46.494Z,1.30
2023-01-24T04:27:13.836Z,1.30
2023-01-24T04:29:54.863Z,1.30
2023-01-24T04:32:21.920Z,1.30
2023-01-24T04:34:54.654Z,1.30
2023-01-24T04:37:36.681Z,1.30
2023-01-24T04:40:03.620Z,1.30
2023-01-24T04:42:31.949Z,1.30
2023-01-24T04:44:58.945Z,4.20
2023-01-24T04:47:25.768Z,1.30
2023-01-24T04:49:52.636Z,1.30
2023-01-24T04:52:20.047Z,1.20
2023-01-24T04:55:02.612Z,1.30
2023-01-24T04:57:29.451Z,1.30
2023-01-24T04:59:59.759Z,1.30
2023-01-24T05:02:26.835Z,1.30
2023-01-24T05:04:53.878Z,1.30
2023-01-24T05:07:20.709Z,1.20
2023-01-24T05:09:54.883Z,1.30
2023-01-24T05:12:23.121Z,1.30
2023-01-24T05:14:49.950Z,1.30
2023-01-24T05:17:16.923Z,1.30
2023-01-24T05:19:44.069Z,1.30
2023-01-24T05:22:10.888Z,1.30
2023-01-24T05:24:42.380Z,1.30
2023-01-24T05:27:09.482Z,1.30
2023-01-24T05:29:40.891Z,1.30
2023-01-24T05:32:08.078Z,1.30
2023-01-24T05:34:36.494Z,1.30
2023-01-24T05:37:06.353Z,1.30
2023-01-24T05:39:34.849Z,1.30
2023-01-24T05:42:01.812Z,1.30
2023-01-24T05:44:37.870Z,1.30
2023-01-24T05:47:04.701Z,1.30
2023-01-24T05:49:36.013Z,1.40
2023-01-24T05:52:03.233Z,1.30
2023-01-24T05:54:51.536Z,1.40
2023-01-24T05:57:37.589Z,1.40
2023-01-24T06:00:13.989Z,1.30
2023-01-24T06:02:55.744Z,1.30
2023-01-24T06:05:25.272Z,1.30
2023-01-24T06:07:52.063Z,1.30
2023-01-24T06:10:18.866Z,1.30
2023-01-24T06:13:00.512Z,1.30
2023-01-24T06:15:27.304Z,1.30
2023-01-24T06:17:54.356Z,1.30
2023-01-24T06:20:21.401Z,2.50
2023-01-24T06:23:05.721Z,1.30
2023-01-24T06:25:35.908Z,1.30
2023-01-24T06:28:03.006Z,1.30
2023-01-24T06:30:29.950Z,1.30
2023-01-24T06:33:20.291Z,1.30
2023-01-24T06:36:24.363Z,1.30
2023-01-24T06:38:51.265Z,1.30
2023-01-24T06:41:18.466Z,1.30
2023-01-24T06:43:45.655Z,1.30
2023-01-24T06:46:13.235Z,1.30
2023-01-24T06:48:40.133Z,1.20
2023-01-24T06:51:07.740Z,1.20
2023-01-24T06:53:34.661Z,1.20
2023-01-24T06:56:01.577Z,2.50
2023-01-24T06:58:28.378Z,1.20
2023-01-24T07:00:55.190Z,1.20
2023-01-24T07:03:22.545Z,0.90
2023-01-24T07:05:49.728Z,4.50
2023-01-24T07:08:21.572Z,1.30
2023-01-24T07:10:48.595Z,1.30
2023-01-24T07:13:15.518Z,1.00
2023-01-24T07:15:42.377Z,1.20
2023-01-24T07:18:09.994Z,1.30
2023-01-24T07:20:36.936Z,1.30
2023-01-24T07:23:04.063Z,1.30
2023-01-24T07:25:30.922Z,1.30
2023-01-24T07:27:58.034Z,1.30
2023-01-24T07:30:24.795Z,1.30
2023-01-24T07:32:51.549Z,1.30
2023-01-24T07:35:18.361Z,3.90
2023-01-24T07:37:45.121Z,1.30
2023-01-24T07:40:12.376Z,1.30
2023-01-24T07:42:39.146Z,1.30
2023-01-24T07:45:06.596Z,1.30
2023-01-24T07:47:33.345Z,1.40
2023-01-24T07:50:00.320Z,1.40
2023-01-24T07:52:27.126Z,1.40
2023-01-24T07:54:53.918Z,3.10
2023-01-24T07:57:20.703Z,1.40
2023-01-24T07:59:47.463Z,1.50
2023-01-24T08:02:14.475Z,1.50
2023-01-24T08:04:41.392Z,1.50
2023-01-24T08:07:21.212Z,1.40
2023-01-24T08:09:50.807Z,1.50
2023-01-24T08:12:19.002Z,1.50
2023-01-24T08:14:45.919Z,3.20
2023-01-24T08:17:12.757Z,1.60
2023-01-24T08:19:57.492Z,1.60
2023-01-24T08:22:25.692Z,1.60
2023-01-24T08:24:52.535Z,1.70
2023-01-24T08:27:19.358Z,1.70
2023-01-24T08:29:46.127Z,1.80
2023-01-24T08:32:13.002Z,1.80
2023-01-24T08:34:39.809Z,1.80
2023-01-24T08:37:08.651Z,1.90
2023-01-24T08:39:35.595Z,1.90
2023-01-24T08:42:02.379Z,1.90
2023-01-24T08:44:29.162Z,2.00
2023-01-24T08:46:55.911Z,2.00
2023-01-24T08:49:22.673Z,2.00
2023-01-24T08:51:49.444Z,2.10
2023-01-24T08:54:16.345Z,2.90
2023-01-24T08:56:43.165Z,2.20
2023-01-24T08:59:10.052Z,2.30
2023-01-24T09:01:36.886Z,2.30
2023-01-24T09:04:05.807Z,2.40
2023-01-24T09:06:32.683Z,2.40
2023-01-24T09:08:59.475Z,2.40
2023-01-24T09:11:26.395Z,2.50
2023-01-24T09:13:53.187Z,2.60
2023-01-24T09:16:20.170Z,2.60
2023-01-24T09:18:47.013Z,5.90
2023-01-24T09:21:13.765Z,2.80
2023-01-24T09:23:40.690Z,2.80
2023-01-24T09:26:07.516Z,2.80
2023-01-24T09:28:34.814Z,3.70
2023-01-24T09:31:02.219Z,2.90
2023-01-24T09:33:29.291Z,2.90
2023-01-24T09:36:00.864Z,3.00
2023-01-24T09:38:30.213Z,4.80
2023-01-24T09:41:18.474Z,3.00
2023-01-24T09:43:52.806Z,3.10
2023-01-24T09:46:36.612Z,3.10
2023-01-24T09:49:34.520Z,3.10
2023-01-24T09:52:01.351Z,3.20
2023-01-24T09:54:33.357Z,6.30
2023-01-24T09:57:00.148Z,3.20
2023-01-24T09:59:44.491Z,3.20
2023-01-24T10:02:18.866Z,3.20
2023-01-24T10:04:45.976Z,3.20
2023-01-24T10:07:25.488Z,3.30
2023-01-24T10:10:11.249Z,3.30
2023-01-24T10:12:54.924Z,3.30
2023-01-24T10:15:21.765Z,3.30
2023-01-24T10:18:07.248Z,3.30
2023-01-24T10:20:49.131Z,3.30
2023-01-24T10:23:32.879Z,3.30
2023-01-24T10:26:12.544Z,3.30
2023-01-24T10:28:42.195Z,3.20
2023-01-24T10:31:51.661Z,5.10
2023-01-24T10:34:25.118Z,3.20
2023-01-24T10:36:54.927Z,3.10
2023-01-24T10:39:21.697Z,3.10
2023-01-24T10:41:48.428Z,3.20
2023-01-24T10:44:16.952Z,3.20
2023-01-24T10:47:14.660Z,2.90
2023-01-24T10:49:42.920Z,3.30
2023-01-24T10:52:14.834Z,3.30
2023-01-24T10:54:54.510Z,3.30
2023-01-24T10:57:39.013Z,3.40
2023-01-24T11:00:19.414Z,3.40
2023-01-24T11:02:57.174Z,4.30
2023-01-24T11:05:24.824Z,3.50
2023-01-24T11:07:53.907Z,3.50
2023-01-24T11:10:26.249Z,3.60
2023-01-24T11:12:59.977Z,3.60
2023-01-24T11:15:29.060Z,5.30
2023-01-24T11:18:00.461Z,3.40
2023-01-24T11:20:28.666Z,3.70
2023-01-24T11:23:17.525Z,3.60
2023-01-24T11:25:54.324Z,3.80
2023-01-24T11:28:28.940Z,6.50
2023-01-24T11:30:56.852Z,3.70
2023-01-24T11:34:25.386Z,3.70
2023-01-24T11:37:02.074Z,3.70
2023-01-24T11:39:50.471Z,3.70
2023-01-24T11:42:29.213Z,3.70
2023-01-24T11:45:37.909Z,3.70
2023-01-24T11:48:21.467Z,3.60
2023-01-24T11:51:12.693Z,6.80
2023-01-24T11:54:04.131Z,3.60
2023-01-24T11:56:30.854Z,3.60
2023-01-24T11:59:15.677Z,3.70
2023-01-24T12:02:04.023Z,3.60
2023-01-24T12:05:00.563Z,3.70
2023-01-24T12:07:52.748Z,3.60
2023-01-24T12:10:28.616Z,3.70
2023-01-24T12:13:09.710Z,3.70
2023-01-24T12:15:58.983Z,3.80
2023-01-24T12:19:24.066Z,3.80
2023-01-24T12:22:00.660Z,3.90
2023-01-24T12:24:28.960Z,4.00
2023-01-24T12:26:58.724Z,4.00
2023-01-24T12:29:34.978Z,4.00
2023-01-24T12:32:20.687Z,4.00
2023-01-24T12:34:52.085Z,4.00
2023-01-24T12:37:31.734Z,4.00
2023-01-24T12:40:13.869Z,4.10
2023-01-24T12:42:49.997Z,5.40
2023-01-24T12:45:52.018Z,4.10
2023-01-24T12:48:51.976Z,4.10
2023-01-24T12:51:51.926Z,4.10
2023-01-24T12:54:26.797Z,4.10
2023-01-24T12:56:59.255Z,4.10
2023-01-24T12:59:27.247Z,4.10
2023-01-24T13:02:22.566Z,4.10
2023-01-24T13:05:16.216Z,4.20
2023-01-24T13:08:07.637Z,4.20
2023-01-24T13:10:55.837Z,4.20
2023-01-24T13:13:29.278Z,4.20
2023-01-24T13:16:20.481Z,4.20
2023-01-24T13:18:57.180Z,4.20
2023-01-24T13:21:44.778Z,4.10
2023-01-24T13:24:23.608Z,4.10
2023-01-24T13:27:41.148Z,4.10
2023-01-24T13:30:19.986Z,4.10
2023-01-24T13:32:48.676Z,4.10
2023-01-24T13:35:21.297Z,4.10
2023-01-24T13:38:16.574Z,4.00
2023-01-24T13:41:06.570Z,4.10
2023-01-24T13:43:57.468Z,4.10
2023-01-24T13:47:00.484Z,4.10
2023-01-24T13:49:30.290Z,4.10
2023-01-24T13:51:57.534Z,4.20
2023-01-24T13:54:44.076Z,4.20
2023-01-24T13:57:18.150Z,6.40
2023-01-24T13:59:57.467Z,4.20
2023-01-24T14:02:24.281Z,5.50
2023-01-24T14:04:51.080Z,4.20
2023-01-24T14:07:27.090Z,4.20
2023-01-24T14:10:04.536Z,4.30
2023-01-24T14:12:38.429Z,4.30
2023-01-24T14:15:12.105Z,4.20
2023-01-24T14:17:41.995Z,5.70
2023-01-24T14:20:44.932Z,4.20
2023-01-24T14:23:22.713Z,4.20
2023-01-24T14:25:51.496Z,4.20
2023-01-24T14:28:34.001Z,4.20
2023-01-24T14:31:15.199Z,4.20
2023-01-24T14:33:55.381Z,4.20
2023-01-24T14:36:28.519Z,4.20
2023-01-24T14:39:34.146Z,6.20
2023-01-24T14:42:05.453Z,4.20
2023-01-24T14:44:39.373Z,4.20
2023-01-24T14:47:24.872Z,4.20
2023-01-24T14:54:20.923Z,4.20
2023-01-24T14:56:47.719Z,4.10
2023-01-24T14:59:15.336Z,3.90
2023-01-24T15:01:42.817Z,4.10
2023-01-24T15:04:26.323Z,4.10
2023-01-24T15:07:13.499Z,4.10
2023-01-24T15:09:42.961Z,4.00
2023-01-24T15:12:14.598Z,4.00
2023-01-24T15:14:41.858Z,4.00
2023-01-24T15:17:20.691Z,4.00
2023-01-24T15:19:48.857Z,6.30
2023-01-24T15:22:19.909Z,3.90
2023-01-24T15:24:56.914Z,3.90
2023-01-24T15:27:28.009Z,3.90
2023-01-24T15:30:20.729Z,3.80
2023-01-24T15:32:56.588Z,3.80
2023-01-24T15:35:27.350Z,3.80
2023-01-24T15:38:16.576Z,3.70
2023-01-24T15:40:57.501Z,3.70
2023-01-24T15:43:51.019Z,3.70
2023-01-24T15:46:55.417Z,3.60
2023-01-24T15:53:41.642Z,3.60
2023-01-24T15:56:16.094Z,5.90
2023-01-24T15:58:42.890Z,3.60
2023-01-24T16:01:09.776Z,3.60
2023-01-24T16:03:36.644Z,3.50
2023-01-24T16:06:03.452Z,3.50
2023-01-24T16:08:30.379Z,3.50
2023-01-24T16:10:59.332Z,3.50
2023-01-24T16:13:30.697Z,5.60
2023-01-24T16:15:58.896Z,3.50
2023-01-24T16:18:25.771Z,3.50
2023-01-24T16:20:52.745Z,5.80
2023-01-24T16:23:19.704Z,3.40
2023-01-24T16:25:48.723Z,5.80
2023-01-24T16:28:22.084Z,3.40
2023-01-24T16:30:49.262Z,3.40
2023-01-24T16:33:17.343Z,3.40
2023-01-24T16:35:44.638Z,3.30
2023-01-24T16:38:12.358Z,3.30
2023-01-24T16:40:39.873Z,3.30
2023-01-24T16:43:10.105Z,4.40
2023-01-24T16:45:37.004Z,3.30
2023-01-24T16:48:05.089Z,5.50
2023-01-24T16:50:33.077Z,4.50
2023-01-24T16:53:00.365Z,3.20
2023-01-24T16:55:28.250Z,3.00
2023-01-24T16:57:55.984Z,5.40
2023-01-24T17:00:22.789Z,3.10
2023-01-24T17:02:50.557Z,3.10
2023-01-24T17:05:17.837Z,3.00
2023-01-24T17:07:44.721Z,3.00
2023-01-24T17:10:11.717Z,3.00
2023-01-24T17:12:38.506Z,2.90
2023-01-24T17:15:05.798Z,2.90
2023-01-24T17:17:34.258Z,3.30
2023-01-24T17:20:02.614Z,2.90
2023-01-24T17:22:29.678Z,2.80
2023-01-24T17:24:56.498Z,2.50
2023-01-24T17:27:23.288Z,2.80
2023-01-24T17:29:50.141Z,2.80
2023-01-24T17:32:17.003Z,2.80
2023-01-24T17:34:43.828Z,2.70
2023-01-24T17:37:10.664Z,2.70
2023-01-24T17:39:37.549Z,2.70
2023-01-24T17:42:04.409Z,2.70
2023-01-24T17:44:31.193Z,4.10
2023-01-24T17:46:58.305Z,2.70
2023-01-24T17:49:25.235Z,3.30
2023-01-24T17:51:52.305Z,5.10
2023-01-24T17:54:19.176Z,2.70
2023-01-24T17:56:46.039Z,2.70
2023-01-24T17:59:12.892Z,4.70
2023-01-24T18:01:39.801Z,2.70
2023-01-24T18:04:06.643Z,2.70
2023-01-24T18:06:34.169Z,2.70
2023-01-24T18:09:01.051Z,2.70
2023-01-24T18:11:27.852Z,2.50
2023-01-24T18:13:54.682Z,2.70
2023-01-24T18:16:21.581Z,2.70
2023-01-24T18:18:48.734Z,2.40
2023-01-24T18:21:20.482Z,2.60
2023-01-24T18:23:54.667Z,2.60
2023-01-24T18:26:21.762Z,2.60
2023-01-24T18:28:48.585Z,2.20
2023-01-24T18:31:15.526Z,2.60
2023-01-24T18:33:42.629Z,2.60
2023-01-24T18:36:18.984Z,2.60
2023-01-24T18:38:46.364Z,2.60
2023-01-24T18:41:14.645Z,2.50
2023-01-24T18:43:41.508Z,2.60
2023-01-24T18:46:11.387Z,2.50
2023-01-24T18:48:39.830Z,2.50
2023-01-24T18:51:08.079Z,2.40
2023-01-24T18:53:34.968Z,2.50
2023-01-24T18:56:02.627Z,2.50
2023-01-24T18:58:31.616Z,2.50
2023-01-24T19:00:59.504Z,2.40
2023-01-24T19:03:26.599Z,2.50
2023-01-24T19:05:53.448Z,4.20
2023-01-24T19:08:20.259Z,2.50
2023-01-24T19:10:47.113Z,2.40
2023-01-24T19:13:13.904Z,2.50
2023-01-24T19:15:40.715Z,2.50
2023-01-24T19:18:07.523Z,2.50
2023-01-24T19:20:35.310Z,2.50
2023-01-24T19:23:02.129Z,3.70
2023-01-24T19:25:28.946Z,2.20
2023-01-24T19:27:55.767Z,2.50
2023-01-24T19:30:22.604Z,2.50
2023-01-24T19:32:49.667Z,2.50
2023-01-24T19:35:16.660Z,3.10
2023-01-24T19:37:43.525Z,4.20
2023-01-24T19:40:10.903Z,2.40
2023-01-24T19:42:39.870Z,2.40
2023-01-24T19:45:07.743Z,4.00
2023-01-24T19:47:35.008Z,2.40
2023-01-24T19:50:01.963Z,2.40
2023-01-24T19:52:31.075Z,2.40
2023-01-24T19:54:57.928Z,3.40
2023-01-24T19:57:24.773Z,2.40
2023-01-24T19:59:51.630Z,2.40
2023-01-24T20:02:18.534Z,3.40
2023-01-24T20:04:52.462Z,3.90
2023-01-24T20:07:21.059Z,2.40
2023-01-24T20:09:47.935Z,2.30
2023-01-24T20:12:14.842Z,2.40
2023-01-24T20:14:41.641Z,3.00
2023-01-24T20:17:08.447Z,2.40
2023-01-24T20:19:35.264Z,2.40
2023-01-24T20:22:02.065Z,3.70
2023-01-24T20:24:29.126Z,2.40
2023-01-24T20:26:55.990Z,2.50
2023-01-24T20:29:23.357Z,2.30
2023-01-24T20:31:50.282Z,2.40
2023-01-24T20:34:18.770Z,2.40
2023-01-24T20:36:47.938Z,2.40
2023-01-24T20:39:14.783Z,4.40
2023-01-24T20:41:43.337Z,2.40
2023-01-24T20:44:26.161Z,2.30
2023-01-24T20:46:54.187Z,2.30
2023-01-24T20:49:21.081Z,2.30
2023-01-24T20:51:47.857Z,2.30
2023-01-24T20:54:14.806Z,5.00
2023-01-24T20:56:41.688Z,2.30
2023-01-24T20:59:08.915Z,2.30
2023-01-24T21:01:35.803Z,2.30
2023-01-24T21:04:04.313Z,2.30
2023-01-24T21:06:31.376Z,2.30
2023-01-24T21:08:58.451Z,2.30
2023-01-24T21:11:27.217Z,2.30
2023-01-24T21:13:55.783Z,2.30
2023-01-24T21:16:23.022Z,2.30
2023-01-24T21:18:52.003Z,2.30
2023-01-24T21:21:20.204Z,2.30
2023-01-24T21:23:47.153Z,2.30
2023-01-24T21:26:16.155Z,3.00
2023-01-24T21:28:44.034Z,2.30
2023-01-24T21:31:12.797Z,2.30
2023-01-24T21:33:39.784Z,2.30
2023-01-24T21:36:08.900Z,2.90
2023-01-24T21:38:35.778Z,2.30
2023-01-24T21:41:26.253Z,2.30
2023-01-24T21:43:53.341Z,2.30
2023-01-24T21:46:20.224Z,2.30
2023-01-24T21:52:52.328Z,2.30
2023-01-24T21:55:19.258Z,2.30
2023-01-24T21:58:01.518Z,3.80
2023-01-24T22:00:28.357Z,2.30
2023-01-24T22:03:15.177Z,2.30
2023-01-24T22:05:41.975Z,2.30
2023-01-24T22:08:09.248Z,2.30
2023-01-24T22:10:36.011Z,2.30
2023-01-24T22:13:03.626Z,2.30
2023-01-24T22:15:30.668Z,2.30
2023-01-24T22:17:57.748Z,2.30
2023-01-24T22:20:26.112Z,2.30
2023-01-24T22:23:12.932Z,2.30
2023-01-24T22:26:03.503Z,2.30
2023-01-24T22:28:31.359Z,2.30
2023-01-24T22:30:58.412Z,2.30
2023-01-24T22:33:25.536Z,2.30
2023-01-24T22:35:55.483Z,2.30
2023-01-24T22:38:26.865Z,2.30
2023-01-24T22:40:54.436Z,2.30
2023-01-24T22:43:21.252Z,2.30
2023-01-24T22:45:48.044Z,3.40
2023-01-24T22:48:15.468Z,2.10
2023-01-24T22:50:45.767Z,2.30
2023-01-24T22:53:12.799Z,2.30
2023-01-24T22:59:59.348Z,2.30
2023-01-24T23:02:26.129Z,2.30
2023-01-24T23:04:52.950Z,4.70
2023-01-24T23:07:22.638Z,2.30
2023-01-24T23:09:49.778Z,2.30
2023-01-24T23:12:35.264Z,2.20
2023-01-24T23:15:20.649Z,2.30
2023-01-24T23:17:48.019Z,2.30
2023-01-24T23:20:33.679Z,2.30
2023-01-24T23:23:00.492Z,2.20
2023-01-24T23:25:27.395Z,2.30
2023-01-24T23:27:54.339Z,5.50
2023-01-24T23:30:30.761Z,3.30
2023-01-24T23:33:04.811Z,2.30
2023-01-24T23:35:31.864Z,2.30
2023-01-24T23:37:58.678Z,2.30
2023-01-24T23:40:25.453Z,2.30
2023-01-24T23:42:52.208Z,2.30
2023-01-24T23:45:19.567Z,2.30
2023-01-24T23:47:46.463Z,2.30
2023-01-24T23:50:13.338Z,2.00
2023-01-24T23:52:40.151Z,2.30
2023-01-24T23:55:07.493Z,2.30
2023-01-24T23:57:34.496Z,2.30
